Sweetwater, Colorado
Current Conditions -  °F | °C
As of 11:50 AM on Saturday 20 Dec 2014 (Local Time) from KEGE Reporting Station
Rain Showers Rain Showers  
Wind Chill: 25°   Ceiling: 4600
Heat Index: 25°   Visibility: 10mi
Dew Point: 18°   Wind: 0mph
Humidity: 74%   Direction: NA
Pressure: 30.16"   Gusts: NA
Location:  39.6878°N, 106.972°W
Report Text: KEGE 201850Z 00000KT 10SM VCSH OVC046 M04/M08 A3016
Loading
Personal Weather Stations






























Interactive Weather Map New forecast layout! Learn more

10-Day Weather Forecast

Advertisements
Track Severe Weather on mobile